SAS225 EKVG-ENTC
Flight info
| Callsign | SAS225 |
|---|---|
| Flight time | 1h 57m |
| Altitude | 37000 |
| Route | ODEVA DCT 65N000E/N0426F370 DCT NORVA DCT GILGU |
| Aircraft | A20N/M-SDE2E3FGHIRWXY/LB1 |
Departure
| Time | 2026-04-29 16:12 |
|---|---|
| Airport | Vágar Airport (EKVG) |
Arrival
| Time | 2026-04-29 18:10 |
|---|---|
| Airport | Tromsø Airport (ENTC) |
| Time | Latitude | Longitude | Altitude | Speed | Heading |
|---|---|---|---|---|---|
| 2026-04-29 15:55 | 62.06669 | -7.27872 | 287 ft | 0 kts | 29° |
| 2026-04-29 16:03 | 62.06662 | -7.27881 | 287 ft | 2 kts | 30° |
| 2026-04-29 16:03 | 62.06648 | -7.27895 | 287 ft | 2 kts | 8° |
| 2026-04-29 16:03 | 62.06634 | -7.27890 | 287 ft | 2 kts | 329° |
| 2026-04-29 16:03 | 62.06624 | -7.27867 | 287 ft | 2 kts | 291° |
| 2026-04-29 16:04 | 62.06617 | -7.27838 | 287 ft | 2 kts | 301° |
| 2026-04-29 16:04 | 62.06612 | -7.27820 | 288 ft | 0 kts | 298° |
| 2026-04-29 16:04 | 62.06612 | -7.27818 | 288 ft | 0 kts | 297° |
| 2026-04-29 16:08 | 62.06619 | -7.27848 | 287 ft | 4 kts | 296° |
| 2026-04-29 16:08 | 62.06638 | -7.27936 | 287 ft | 8 kts | 292° |
| 2026-04-29 16:08 | 62.06643 | -7.28064 | 287 ft | 9 kts | 235° |
| 2026-04-29 16:09 | 62.06581 | -7.28089 | 287 ft | 9 kts | 184° |
| 2026-04-29 16:09 | 62.06514 | -7.28132 | 288 ft | 9 kts | 203° |
| 2026-04-29 16:09 | 62.06486 | -7.28231 | 289 ft | 9 kts | 291° |
| 2026-04-29 16:09 | 62.06520 | -7.28374 | 287 ft | 12 kts | 297° |
| 2026-04-29 16:10 | 62.06566 | -7.28563 | 283 ft | 16 kts | 298° |
| 2026-04-29 16:10 | 62.06627 | -7.28802 | 278 ft | 20 kts | 298° |
| 2026-04-29 16:10 | 62.06692 | -7.29070 | 275 ft | 13 kts | 297° |
| 2026-04-29 16:10 | 62.06718 | -7.29220 | 276 ft | 7 kts | 357° |
| 2026-04-29 16:11 | 62.06722 | -7.29189 | 276 ft | 0 kts | 133° |
| 2026-04-29 16:11 | 62.06714 | -7.29157 | 276 ft | 0 kts | 116° |
| 2026-04-29 16:12 | 62.06690 | -7.29056 | 275 ft | 27 kts | 117° |
| 2026-04-29 16:12 | 62.06576 | -7.28599 | 283 ft | 75 kts | 120° |
| 2026-04-29 16:12 | 62.06082 | -7.26574 | 285 ft | 150 kts | 121° |
| 2026-04-29 16:12 | 62.05637 | -7.24691 | 894 ft | 144 kts | 125° |
| 2026-04-29 16:13 | 62.05047 | -7.22931 | 1407 ft | 147 kts | 149° |
| 2026-04-29 16:13 | 62.04163 | -7.22027 | 1933 ft | 141 kts | 181° |
| 2026-04-29 16:13 | 62.03239 | -7.22229 | 2431 ft | 135 kts | 206° |
| 2026-04-29 16:13 | 62.02361 | -7.22952 | 2887 ft | 143 kts | 202° |
| 2026-04-29 16:14 | 62.01348 | -7.23501 | 3210 ft | 162 kts | 194° |
| 2026-04-29 16:14 | 62.00160 | -7.23702 | 3597 ft | 181 kts | 185° |
| 2026-04-29 16:14 | 61.98843 | -7.23402 | 3994 ft | 202 kts | 175° |
| 2026-04-29 16:14 | 61.97422 | -7.22417 | 4346 ft | 230 kts | 160° |
| 2026-04-29 16:15 | 61.96046 | -7.20587 | 5035 ft | 243 kts | 148° |
| 2026-04-29 16:15 | 61.94857 | -7.17953 | 5693 ft | 259 kts | 133° |
| 2026-04-29 16:15 | 61.93980 | -7.14540 | 6470 ft | 273 kts | 117° |
| 2026-04-29 16:15 | 61.93526 | -7.10573 | 7265 ft | 284 kts | 105° |
| 2026-04-29 16:16 | 61.93253 | -7.06342 | 7906 ft | 296 kts | 103° |
| 2026-04-29 16:16 | 61.93010 | -7.02006 | 8674 ft | 301 kts | 103° |
| 2026-04-29 16:16 | 61.92760 | -6.97600 | 9492 ft | 304 kts | 103° |
| 2026-04-29 16:16 | 61.92498 | -6.93200 | 10259 ft | 308 kts | 103° |
| 2026-04-29 16:17 | 61.92214 | -6.88637 | 10897 ft | 317 kts | 104° |
| 2026-04-29 16:17 | 61.91910 | -6.83922 | 11300 ft | 333 kts | 103° |
| 2026-04-29 16:17 | 61.91592 | -6.78997 | 11890 ft | 342 kts | 103° |
| 2026-04-29 16:17 | 61.91272 | -6.74034 | 12587 ft | 347 kts | 103° |
| 2026-04-29 16:18 | 61.90943 | -6.68926 | 13284 ft | 352 kts | 103° |
| 2026-04-29 16:18 | 61.90731 | -6.63605 | 13967 ft | 363 kts | 90° |
| 2026-04-29 16:18 | 61.91431 | -6.58457 | 14603 ft | 377 kts | 61° |
| 2026-04-29 16:18 | 61.93113 | -6.54162 | 15341 ft | 380 kts | 42° |
| 2026-04-29 16:19 | 61.95086 | -6.50460 | 16010 ft | 383 kts | 39° |
| 2026-04-29 16:19 | 61.97129 | -6.46788 | 16620 ft | 388 kts | 39° |
| 2026-04-29 16:19 | 61.99167 | -6.43064 | 17254 ft | 392 kts | 39° |
| 2026-04-29 16:19 | 62.01205 | -6.39241 | 17890 ft | 395 kts | 40° |
| 2026-04-29 16:20 | 62.03241 | -6.35344 | 18491 ft | 399 kts | 40° |
| 2026-04-29 16:20 | 62.05311 | -6.31322 | 19101 ft | 402 kts | 41° |
| 2026-04-29 16:20 | 62.07359 | -6.27303 | 19700 ft | 405 kts | 42° |
| 2026-04-29 16:20 | 62.09513 | -6.23055 | 20324 ft | 407 kts | 42° |
| 2026-04-29 16:21 | 62.11582 | -6.18962 | 20904 ft | 410 kts | 42° |
| 2026-04-29 16:21 | 62.13678 | -6.14811 | 21478 ft | 412 kts | 42° |
| 2026-04-29 16:21 | 62.15757 | -6.10681 | 22029 ft | 415 kts | 42° |
| 2026-04-29 16:21 | 62.17867 | -6.06486 | 22560 ft | 417 kts | 42° |
| 2026-04-29 16:22 | 62.19983 | -6.02269 | 23095 ft | 420 kts | 42° |
| 2026-04-29 16:22 | 62.22124 | -5.97997 | 23611 ft | 423 kts | 42° |
| 2026-04-29 16:22 | 62.24268 | -5.93706 | 24147 ft | 425 kts | 42° |
| 2026-04-29 16:22 | 62.26412 | -5.89407 | 24642 ft | 427 kts | 42° |
| 2026-04-29 16:23 | 62.28576 | -5.85060 | 25128 ft | 430 kts | 41° |
| 2026-04-29 16:23 | 62.30763 | -5.80657 | 25603 ft | 433 kts | 41° |
| 2026-04-29 16:23 | 62.32950 | -5.76245 | 26066 ft | 436 kts | 41° |
| 2026-04-29 16:23 | 62.35152 | -5.71794 | 26506 ft | 438 kts | 41° |
| 2026-04-29 16:24 | 62.37391 | -5.67257 | 26939 ft | 441 kts | 41° |
| 2026-04-29 16:24 | 62.39600 | -5.62772 | 27345 ft | 444 kts | 41° |
| 2026-04-29 16:24 | 62.41867 | -5.58162 | 27767 ft | 447 kts | 41° |
| 2026-04-29 16:24 | 62.44099 | -5.53611 | 28182 ft | 449 kts | 41° |
| 2026-04-29 16:25 | 62.46366 | -5.48980 | 28568 ft | 451 kts | 41° |
| 2026-04-29 16:25 | 62.48659 | -5.44283 | 28940 ft | 454 kts | 41° |
| 2026-04-29 16:25 | 62.50932 | -5.39621 | 29303 ft | 457 kts | 41° |
| 2026-04-29 16:25 | 62.53230 | -5.34892 | 29684 ft | 459 kts | 42° |
| 2026-04-29 16:26 | 62.55551 | -5.30101 | 30024 ft | 461 kts | 42° |
| 2026-04-29 16:26 | 62.57869 | -5.25296 | 30354 ft | 464 kts | 42° |
| 2026-04-29 16:26 | 62.60184 | -5.20487 | 30699 ft | 465 kts | 42° |
| 2026-04-29 16:26 | 62.62525 | -5.15621 | 31019 ft | 467 kts | 42° |
| 2026-04-29 16:27 | 62.64859 | -5.10760 | 31319 ft | 469 kts | 42° |
| 2026-04-29 16:27 | 62.67180 | -5.05919 | 31681 ft | 470 kts | 42° |
| 2026-04-29 16:27 | 62.69517 | -5.01032 | 32086 ft | 469 kts | 41° |
| 2026-04-29 16:27 | 62.71856 | -4.96131 | 32504 ft | 467 kts | 41° |
| 2026-04-29 16:28 | 62.74182 | -4.91245 | 32915 ft | 465 kts | 41° |
| 2026-04-29 16:28 | 62.76503 | -4.86362 | 33306 ft | 464 kts | 41° |
| 2026-04-29 16:28 | 62.78817 | -4.81478 | 33672 ft | 463 kts | 41° |
| 2026-04-29 16:28 | 62.81120 | -4.76612 | 34008 ft | 462 kts | 41° |
| 2026-04-29 16:29 | 62.83398 | -4.71786 | 34327 ft | 462 kts | 42° |
| 2026-04-29 16:29 | 62.85681 | -4.66937 | 34667 ft | 460 kts | 41° |
| 2026-04-29 16:29 | 62.87989 | -4.62025 | 34978 ft | 459 kts | 42° |
| 2026-04-29 16:29 | 62.90235 | -4.57232 | 35258 ft | 458 kts | 42° |
| 2026-04-29 16:30 | 62.92529 | -4.52325 | 35508 ft | 458 kts | 41° |
| 2026-04-29 16:30 | 62.94781 | -4.47498 | 35706 ft | 459 kts | 41° |
| 2026-04-29 16:30 | 62.97076 | -4.42565 | 35887 ft | 461 kts | 41° |
| 2026-04-29 16:30 | 62.99337 | -4.37697 | 36071 ft | 462 kts | 41° |
| 2026-04-29 16:31 | 63.01626 | -4.32756 | 36236 ft | 463 kts | 43° |
| 2026-04-29 16:31 | 63.03920 | -4.27779 | 36391 ft | 464 kts | 43° |
| 2026-04-29 16:31 | 63.06198 | -4.22823 | 36555 ft | 465 kts | 43° |
| 2026-04-29 16:31 | 63.08489 | -4.17832 | 36716 ft | 466 kts | 42° |
| 2026-04-29 16:32 | 63.10783 | -4.12829 | 36899 ft | 467 kts | 42° |
| 2026-04-29 16:32 | 63.13098 | -4.07797 | 37096 ft | 467 kts | 42° |
| 2026-04-29 16:32 | 63.15389 | -4.02812 | 37252 ft | 468 kts | 42° |
| 2026-04-29 16:33 | 63.22298 | -3.87668 | 37271 ft | 469 kts | 42° |
| 2026-04-29 16:33 | 63.26907 | -3.77477 | 37272 ft | 469 kts | 42° |
| 2026-04-29 16:34 | 63.31514 | -3.67241 | 37269 ft | 469 kts | 42° |
| 2026-04-29 16:34 | 63.36088 | -3.57024 | 37267 ft | 470 kts | 42° |
| 2026-04-29 16:35 | 63.40680 | -3.46718 | 37271 ft | 470 kts | 42° |
| 2026-04-29 16:35 | 63.45246 | -3.36425 | 37269 ft | 470 kts | 42° |
| 2026-04-29 16:36 | 63.49843 | -3.25992 | 37266 ft | 478 kts | 43° |
| 2026-04-29 16:36 | 63.54527 | -3.15302 | 37259 ft | 485 kts | 43° |
| 2026-04-29 16:37 | 63.59259 | -3.04466 | 37267 ft | 491 kts | 43° |
| 2026-04-29 16:37 | 63.63218 | -2.95357 | 37261 ft | 496 kts | 43° |
| 2026-04-29 16:38 | 63.68821 | -2.82407 | 37261 ft | 501 kts | 43° |
| 2026-04-29 16:38 | 63.73675 | -2.71124 | 37259 ft | 505 kts | 43° |
| 2026-04-29 16:39 | 63.78540 | -2.59757 | 37262 ft | 506 kts | 43° |
| 2026-04-29 16:39 | 63.83402 | -2.48336 | 37256 ft | 506 kts | 43° |
| 2026-04-29 16:40 | 63.88247 | -2.36899 | 37252 ft | 507 kts | 43° |
| 2026-04-29 16:40 | 63.93099 | -2.25358 | 37246 ft | 507 kts | 44° |
| 2026-04-29 16:41 | 63.97932 | -2.13790 | 37242 ft | 508 kts | 43° |
| 2026-04-29 16:41 | 64.02766 | -2.02180 | 37245 ft | 507 kts | 43° |
| 2026-04-29 16:42 | 64.07586 | -1.90553 | 37241 ft | 508 kts | 43° |
| 2026-04-29 16:42 | 64.12402 | -1.78886 | 37245 ft | 508 kts | 43° |
| 2026-04-29 16:43 | 64.17251 | -1.67141 | 37246 ft | 508 kts | 43° |
| 2026-04-29 16:43 | 64.22056 | -1.55396 | 37245 ft | 509 kts | 43° |
| 2026-04-29 16:44 | 64.26863 | -1.43549 | 37242 ft | 509 kts | 43° |
| 2026-04-29 16:44 | 64.31643 | -1.31707 | 37249 ft | 509 kts | 44° |
| 2026-04-29 16:45 | 64.36422 | -1.19760 | 37236 ft | 510 kts | 44° |
| 2026-04-29 16:45 | 64.41215 | -1.07726 | 37239 ft | 509 kts | 44° |
| 2026-04-29 16:46 | 64.45946 | -0.95794 | 37233 ft | 509 kts | 44° |
| 2026-04-29 16:46 | 64.50732 | -0.83666 | 37217 ft | 509 kts | 43° |
| 2026-04-29 16:47 | 64.55455 | -0.71631 | 37218 ft | 509 kts | 43° |
| 2026-04-29 16:47 | 64.60191 | -0.59495 | 37217 ft | 509 kts | 43° |
| 2026-04-29 16:48 | 64.64902 | -0.47359 | 37222 ft | 509 kts | 43° |
| 2026-04-29 16:48 | 64.69621 | -0.35130 | 37220 ft | 509 kts | 43° |
| 2026-04-29 16:49 | 64.74335 | -0.22818 | 37224 ft | 510 kts | 44° |
| 2026-04-29 16:49 | 64.79028 | -0.10491 | 37231 ft | 510 kts | 44° |
| 2026-04-29 16:50 | 64.83737 | 0.01933 | 37232 ft | 510 kts | 44° |
| 2026-04-29 16:50 | 64.88390 | 0.14267 | 37240 ft | 509 kts | 44° |
| 2026-04-29 16:51 | 64.93065 | 0.26728 | 37234 ft | 509 kts | 44° |
| 2026-04-29 16:51 | 64.97684 | 0.39114 | 37225 ft | 508 kts | 44° |
| 2026-04-29 16:52 | 65.02339 | 0.51659 | 37226 ft | 508 kts | 44° |
| 2026-04-29 16:52 | 65.06963 | 0.64204 | 37225 ft | 508 kts | 44° |
| 2026-04-29 16:53 | 65.11581 | 0.76806 | 37220 ft | 509 kts | 45° |
| 2026-04-29 16:53 | 65.16190 | 0.89394 | 37213 ft | 510 kts | 45° |
| 2026-04-29 16:54 | 65.20804 | 1.02098 | 37220 ft | 508 kts | 45° |
| 2026-04-29 16:54 | 65.25403 | 1.14847 | 37214 ft | 508 kts | 45° |
| 2026-04-29 16:55 | 65.29970 | 1.27594 | 37212 ft | 509 kts | 45° |
| 2026-04-29 16:55 | 65.34522 | 1.40372 | 37211 ft | 509 kts | 45° |
| 2026-04-29 16:56 | 65.39067 | 1.53207 | 37207 ft | 509 kts | 44° |
| 2026-04-29 16:56 | 65.43634 | 1.66185 | 37208 ft | 509 kts | 45° |
| 2026-04-29 16:57 | 65.48148 | 1.79115 | 37206 ft | 509 kts | 45° |
| 2026-04-29 16:57 | 65.52676 | 1.92152 | 37200 ft | 509 kts | 45° |
| 2026-04-29 16:58 | 65.57169 | 2.05158 | 37199 ft | 509 kts | 45° |
| 2026-04-29 16:58 | 65.61674 | 2.18268 | 37201 ft | 509 kts | 45° |
| 2026-04-29 16:59 | 65.66167 | 2.31413 | 37204 ft | 509 kts | 45° |
| 2026-04-29 16:59 | 65.70648 | 2.44603 | 37204 ft | 510 kts | 45° |
| 2026-04-29 17:00 | 65.75092 | 2.57761 | 37202 ft | 509 kts | 45° |
| 2026-04-29 17:00 | 65.79565 | 2.71098 | 37198 ft | 509 kts | 46° |
| 2026-04-29 17:01 | 65.84000 | 2.84433 | 37197 ft | 509 kts | 46° |
| 2026-04-29 17:01 | 65.88416 | 2.97771 | 37189 ft | 509 kts | 46° |
| 2026-04-29 17:02 | 65.92855 | 3.11243 | 37187 ft | 509 kts | 46° |
| 2026-04-29 17:02 | 65.97267 | 3.24714 | 37188 ft | 510 kts | 45° |
| 2026-04-29 17:03 | 66.01661 | 3.38215 | 37187 ft | 509 kts | 45° |
| 2026-04-29 17:03 | 66.06057 | 3.51805 | 37186 ft | 508 kts | 45° |
| 2026-04-29 17:04 | 66.10421 | 3.65376 | 37182 ft | 509 kts | 46° |
| 2026-04-29 17:04 | 66.14794 | 3.78998 | 37174 ft | 510 kts | 46° |
| 2026-04-29 17:05 | 66.19163 | 3.92714 | 37170 ft | 510 kts | 46° |
| 2026-04-29 17:05 | 66.23495 | 4.06433 | 37170 ft | 509 kts | 46° |
| 2026-04-29 17:06 | 66.27842 | 4.20287 | 37166 ft | 509 kts | 46° |
| 2026-04-29 17:06 | 66.32146 | 4.34094 | 37172 ft | 509 kts | 46° |
| 2026-04-29 17:07 | 66.35725 | 4.45646 | 37168 ft | 510 kts | 46° |
| 2026-04-29 17:07 | 66.40758 | 4.61989 | 37167 ft | 509 kts | 46° |
| 2026-04-29 17:08 | 66.45015 | 4.75928 | 37163 ft | 510 kts | 47° |
| 2026-04-29 17:08 | 66.49289 | 4.90022 | 37162 ft | 510 kts | 47° |
| 2026-04-29 17:09 | 66.53532 | 5.04078 | 37159 ft | 510 kts | 47° |
| 2026-04-29 17:09 | 66.57778 | 5.18241 | 37158 ft | 510 kts | 47° |
| 2026-04-29 17:10 | 66.62003 | 5.32419 | 37156 ft | 509 kts | 46° |
| 2026-04-29 17:10 | 66.66215 | 5.46636 | 37150 ft | 509 kts | 46° |
| 2026-04-29 17:11 | 66.70420 | 5.60928 | 37149 ft | 509 kts | 46° |
| 2026-04-29 17:11 | 66.74613 | 5.75280 | 37150 ft | 509 kts | 47° |
| 2026-04-29 17:12 | 66.78789 | 5.89685 | 37154 ft | 510 kts | 47° |
| 2026-04-29 17:12 | 66.82259 | 6.01724 | 37151 ft | 510 kts | 47° |
| 2026-04-29 17:13 | 66.87086 | 6.18554 | 37153 ft | 508 kts | 47° |
| 2026-04-29 17:13 | 66.91203 | 6.33007 | 37155 ft | 509 kts | 47° |
| 2026-04-29 17:14 | 66.95342 | 6.47640 | 37149 ft | 508 kts | 47° |
| 2026-04-29 17:14 | 66.99412 | 6.62119 | 37149 ft | 507 kts | 47° |
| 2026-04-29 17:15 | 67.03511 | 6.76804 | 37144 ft | 509 kts | 48° |
| 2026-04-29 17:15 | 67.07581 | 6.91518 | 37136 ft | 509 kts | 48° |
| 2026-04-29 17:16 | 67.11651 | 7.06279 | 37133 ft | 509 kts | 48° |
| 2026-04-29 17:16 | 67.15718 | 7.21037 | 37131 ft | 509 kts | 47° |
| 2026-04-29 17:17 | 67.19753 | 7.35835 | 37128 ft | 507 kts | 48° |
| 2026-04-29 17:17 | 67.23759 | 7.50650 | 37127 ft | 507 kts | 48° |
| 2026-04-29 17:18 | 67.27761 | 7.65570 | 37106 ft | 506 kts | 49° |
| 2026-04-29 17:18 | 67.31735 | 7.80519 | 37103 ft | 506 kts | 49° |
| 2026-04-29 17:19 | 67.35694 | 7.95515 | 37123 ft | 506 kts | 49° |
| 2026-04-29 17:19 | 67.39622 | 8.10468 | 37106 ft | 506 kts | 49° |
| 2026-04-29 17:20 | 67.43546 | 8.25506 | 37115 ft | 506 kts | 49° |
| 2026-04-29 17:20 | 67.47489 | 8.40711 | 37112 ft | 507 kts | 49° |
| 2026-04-29 17:21 | 67.51387 | 8.55868 | 37096 ft | 506 kts | 48° |
| 2026-04-29 17:21 | 67.55258 | 8.71009 | 37101 ft | 506 kts | 50° |
| 2026-04-29 17:22 | 67.59140 | 8.86339 | 37096 ft | 506 kts | 49° |
| 2026-04-29 17:22 | 67.62995 | 9.01652 | 37086 ft | 506 kts | 50° |
| 2026-04-29 17:23 | 67.66827 | 9.16963 | 37085 ft | 506 kts | 50° |
| 2026-04-29 17:23 | 67.70666 | 9.32412 | 37097 ft | 506 kts | 49° |
| 2026-04-29 17:24 | 67.74490 | 9.47916 | 37090 ft | 505 kts | 49° |
| 2026-04-29 17:24 | 67.78291 | 9.63416 | 37094 ft | 505 kts | 49° |
| 2026-04-29 17:25 | 67.82063 | 9.78954 | 37093 ft | 506 kts | 50° |
| 2026-04-29 17:25 | 67.85814 | 9.94498 | 37087 ft | 507 kts | 50° |
| 2026-04-29 17:26 | 67.89584 | 10.10234 | 37079 ft | 506 kts | 50° |
| 2026-04-29 17:26 | 67.93336 | 10.25986 | 37079 ft | 507 kts | 50° |
| 2026-04-29 17:27 | 67.97054 | 10.41717 | 37064 ft | 507 kts | 50° |
| 2026-04-29 17:27 | 68.00767 | 10.57538 | 37062 ft | 506 kts | 50° |
| 2026-04-29 17:28 | 68.04479 | 10.73480 | 37039 ft | 505 kts | 51° |
| 2026-04-29 17:28 | 68.08137 | 10.89331 | 37052 ft | 506 kts | 51° |
| 2026-04-29 17:29 | 68.11863 | 11.05151 | 37067 ft | 502 kts | 49° |
| 2026-04-29 17:29 | 68.15092 | 11.18099 | 37056 ft | 502 kts | 48° |
| 2026-04-29 17:30 | 68.19547 | 11.36135 | 37064 ft | 502 kts | 49° |
| 2026-04-29 17:30 | 68.23367 | 11.51863 | 37061 ft | 501 kts | 49° |
| 2026-04-29 17:31 | 68.27123 | 11.67456 | 37059 ft | 501 kts | 50° |
| 2026-04-29 17:31 | 68.30873 | 11.83206 | 37069 ft | 502 kts | 50° |
| 2026-04-29 17:32 | 68.34618 | 11.99042 | 37060 ft | 501 kts | 50° |
| 2026-04-29 17:32 | 68.38351 | 12.14919 | 37061 ft | 500 kts | 50° |
| 2026-04-29 17:33 | 68.42038 | 12.30692 | 37047 ft | 501 kts | 50° |
| 2026-04-29 17:33 | 68.45732 | 12.46629 | 37060 ft | 501 kts | 50° |
| 2026-04-29 17:34 | 68.49398 | 12.62562 | 37060 ft | 500 kts | 50° |
| 2026-04-29 17:34 | 68.53059 | 12.78618 | 37052 ft | 500 kts | 51° |
| 2026-04-29 17:35 | 68.58511 | 13.02752 | 37057 ft | 499 kts | 51° |
| 2026-04-29 17:36 | 68.62079 | 13.18669 | 37038 ft | 499 kts | 51° |
| 2026-04-29 17:36 | 68.62801 | 13.21906 | 37053 ft | 499 kts | 51° |
| 2026-04-29 17:37 | 68.63419 | 13.24674 | 37046 ft | 499 kts | 51° |
| 2026-04-29 17:37 | 68.66256 | 13.37442 | 36957 ft | 499 kts | 51° |
| 2026-04-29 17:38 | 68.69813 | 13.53592 | 37221 ft | 489 kts | 51° |
| 2026-04-29 17:38 | 68.71542 | 13.61509 | 37057 ft | 477 kts | 50° |
| 2026-04-29 17:38 | 68.72853 | 13.67532 | 36904 ft | 470 kts | 51° |
| 2026-04-29 17:39 | 68.73685 | 13.71375 | 36798 ft | 465 kts | 51° |
| 2026-04-29 17:39 | 68.74511 | 13.75194 | 36683 ft | 460 kts | 50° |
| 2026-04-29 17:40 | 68.76121 | 13.82643 | 36482 ft | 451 kts | 50° |
| 2026-04-29 17:40 | 68.76856 | 13.86047 | 36373 ft | 448 kts | 50° |
| 2026-04-29 17:40 | 68.77251 | 13.87871 | 36331 ft | 447 kts | 50° |
| 2026-04-29 17:40 | 68.78835 | 13.95213 | 36109 ft | 443 kts | 49° |
| 2026-04-29 17:41 | 68.80389 | 14.02425 | 35914 ft | 443 kts | 48° |
| 2026-04-29 17:41 | 68.81963 | 14.09738 | 35704 ft | 444 kts | 48° |
| 2026-04-29 17:41 | 68.83529 | 14.17040 | 35488 ft | 444 kts | 48° |
| 2026-04-29 17:42 | 68.83569 | 14.17225 | 35483 ft | 444 kts | 48° |
| 2026-04-29 17:42 | 68.85048 | 14.24146 | 35281 ft | 446 kts | 48° |
| 2026-04-29 17:42 | 68.86624 | 14.31569 | 35071 ft | 446 kts | 47° |
| 2026-04-29 17:42 | 68.88185 | 14.38953 | 34824 ft | 446 kts | 47° |
| 2026-04-29 17:43 | 68.89734 | 14.46286 | 34497 ft | 446 kts | 47° |
| 2026-04-29 17:43 | 68.91313 | 14.53768 | 33996 ft | 449 kts | 47° |
| 2026-04-29 17:43 | 68.92862 | 14.61155 | 33438 ft | 449 kts | 47° |
| 2026-04-29 17:43 | 68.94423 | 14.68623 | 32885 ft | 450 kts | 48° |
| 2026-04-29 17:44 | 68.95986 | 14.76150 | 32257 ft | 452 kts | 48° |
| 2026-04-29 17:44 | 68.97559 | 14.83734 | 31592 ft | 455 kts | 49° |
| 2026-04-29 17:44 | 68.99123 | 14.91323 | 30975 ft | 457 kts | 49° |
| 2026-04-29 17:44 | 69.00703 | 14.99011 | 30314 ft | 459 kts | 49° |
| 2026-04-29 17:45 | 69.02267 | 15.06643 | 29680 ft | 460 kts | 49° |
| 2026-04-29 17:45 | 69.03848 | 15.14374 | 29069 ft | 459 kts | 49° |
| 2026-04-29 17:45 | 69.05398 | 15.22015 | 28590 ft | 455 kts | 50° |
| 2026-04-29 17:45 | 69.06946 | 15.29688 | 28271 ft | 447 kts | 50° |
| 2026-04-29 17:46 | 69.08452 | 15.37178 | 27929 ft | 443 kts | 50° |
| 2026-04-29 17:46 | 69.09932 | 15.44524 | 27598 ft | 439 kts | 50° |
| 2026-04-29 17:46 | 69.11432 | 15.51966 | 27220 ft | 436 kts | 50° |
| 2026-04-29 17:46 | 69.12907 | 15.59265 | 26813 ft | 433 kts | 50° |
| 2026-04-29 17:47 | 69.14373 | 15.66574 | 26421 ft | 429 kts | 51° |
| 2026-04-29 17:47 | 69.15826 | 15.73865 | 25974 ft | 427 kts | 51° |
| 2026-04-29 17:47 | 69.17264 | 15.81126 | 25538 ft | 423 kts | 52° |
| 2026-04-29 17:47 | 69.18671 | 15.88268 | 25155 ft | 420 kts | 52° |
| 2026-04-29 17:48 | 69.20063 | 15.95362 | 24736 ft | 417 kts | 52° |
| 2026-04-29 17:48 | 69.21455 | 16.02470 | 24384 ft | 412 kts | 52° |
| 2026-04-29 17:48 | 69.22818 | 16.09451 | 24031 ft | 407 kts | 53° |
| 2026-04-29 17:48 | 69.24161 | 16.16372 | 23662 ft | 403 kts | 53° |
| 2026-04-29 17:49 | 69.25498 | 16.23262 | 23247 ft | 401 kts | 53° |
| 2026-04-29 17:49 | 69.26804 | 16.30017 | 22853 ft | 398 kts | 53° |
| 2026-04-29 17:49 | 69.28125 | 16.36884 | 22442 ft | 395 kts | 53° |
| 2026-04-29 17:49 | 69.29427 | 16.43662 | 22045 ft | 393 kts | 53° |
| 2026-04-29 17:50 | 69.30713 | 16.50381 | 21659 ft | 390 kts | 53° |
| 2026-04-29 17:50 | 69.31973 | 16.56990 | 21285 ft | 386 kts | 53° |
| 2026-04-29 17:50 | 69.33243 | 16.63659 | 20889 ft | 384 kts | 53° |
| 2026-04-29 17:50 | 69.34489 | 16.70250 | 20479 ft | 382 kts | 54° |
| 2026-04-29 17:51 | 69.35731 | 16.76843 | 20079 ft | 379 kts | 54° |
| 2026-04-29 17:51 | 69.36968 | 16.83426 | 19720 ft | 376 kts | 54° |
| 2026-04-29 17:51 | 69.38189 | 16.89935 | 19326 ft | 373 kts | 54° |
| 2026-04-29 17:51 | 69.39387 | 16.96346 | 18941 ft | 370 kts | 54° |
| 2026-04-29 17:52 | 69.40579 | 17.02736 | 18598 ft | 366 kts | 54° |
| 2026-04-29 17:52 | 69.41360 | 17.06931 | 18373 ft | 364 kts | 54° |
| 2026-04-29 17:52 | 69.42921 | 17.15348 | 17891 ft | 359 kts | 55° |
| 2026-04-29 17:52 | 69.44068 | 17.21560 | 17500 ft | 357 kts | 55° |
| 2026-04-29 17:53 | 69.45213 | 17.27765 | 17110 ft | 355 kts | 55° |
| 2026-04-29 17:53 | 69.46358 | 17.34004 | 16724 ft | 353 kts | 55° |
| 2026-04-29 17:53 | 69.47469 | 17.40078 | 16369 ft | 350 kts | 55° |
| 2026-04-29 17:53 | 69.48598 | 17.46128 | 15978 ft | 346 kts | 52° |
| 2026-04-29 17:54 | 69.49938 | 17.51669 | 15565 ft | 338 kts | 43° |
| 2026-04-29 17:54 | 69.51526 | 17.56567 | 15177 ft | 331 kts | 36° |
| 2026-04-29 17:54 | 69.53162 | 17.61026 | 14794 ft | 328 kts | 35° |
| 2026-04-29 17:54 | 69.54813 | 17.65439 | 14416 ft | 326 kts | 36° |
| 2026-04-29 17:55 | 69.56455 | 17.69860 | 14016 ft | 324 kts | 37° |
| 2026-04-29 17:55 | 69.58091 | 17.74290 | 13614 ft | 323 kts | 37° |
| 2026-04-29 17:55 | 69.59686 | 17.78636 | 13249 ft | 320 kts | 37° |
| 2026-04-29 17:55 | 69.61292 | 17.83027 | 12869 ft | 318 kts | 37° |
| 2026-04-29 17:56 | 69.62876 | 17.87363 | 12489 ft | 319 kts | 37° |
| 2026-04-29 17:56 | 69.64480 | 17.91771 | 12129 ft | 318 kts | 37° |
| 2026-04-29 17:56 | 69.66053 | 17.96111 | 11773 ft | 317 kts | 37° |
| 2026-04-29 17:56 | 69.67641 | 18.00496 | 11407 ft | 315 kts | 38° |
| 2026-04-29 17:57 | 69.69210 | 18.04838 | 11039 ft | 313 kts | 38° |
| 2026-04-29 17:57 | 69.70751 | 18.09113 | 10690 ft | 312 kts | 38° |
| 2026-04-29 17:57 | 69.72306 | 18.13437 | 10328 ft | 310 kts | 38° |
| 2026-04-29 17:57 | 69.73328 | 18.16285 | 10102 ft | 308 kts | 38° |
| 2026-04-29 17:58 | 69.75304 | 18.21815 | 9995 ft | 290 kts | 38° |
| 2026-04-29 17:58 | 69.76722 | 18.25800 | 9827 ft | 283 kts | 38° |
| 2026-04-29 17:58 | 69.78122 | 18.29725 | 9495 ft | 281 kts | 38° |
| 2026-04-29 17:58 | 69.79527 | 18.33656 | 9153 ft | 280 kts | 38° |
| 2026-04-29 17:59 | 69.80907 | 18.37532 | 8832 ft | 279 kts | 38° |
| 2026-04-29 17:59 | 69.82300 | 18.41454 | 8497 ft | 278 kts | 38° |
| 2026-04-29 17:59 | 69.83656 | 18.45285 | 8189 ft | 276 kts | 38° |
| 2026-04-29 17:59 | 69.85032 | 18.49178 | 7868 ft | 275 kts | 38° |
| 2026-04-29 18:00 | 69.86393 | 18.53037 | 7559 ft | 273 kts | 38° |
| 2026-04-29 18:00 | 69.87736 | 18.56857 | 7258 ft | 272 kts | 38° |
| 2026-04-29 18:00 | 69.89074 | 18.60664 | 6976 ft | 271 kts | 38° |
| 2026-04-29 18:00 | 69.90410 | 18.64476 | 6671 ft | 270 kts | 38° |
| 2026-04-29 18:01 | 69.91751 | 18.68316 | 6373 ft | 269 kts | 40° |
| 2026-04-29 18:01 | 69.93073 | 18.72115 | 6094 ft | 267 kts | 40° |
| 2026-04-29 18:01 | 69.94350 | 18.75807 | 6063 ft | 253 kts | 39° |
| 2026-04-29 18:01 | 69.95526 | 18.79501 | 6001 ft | 252 kts | 53° |
| 2026-04-29 18:02 | 69.96027 | 18.84377 | 5816 ft | 256 kts | 95° |
| 2026-04-29 18:02 | 69.95686 | 18.89363 | 5587 ft | 251 kts | 107° |
| 2026-04-29 18:02 | 69.95206 | 18.94238 | 5345 ft | 249 kts | 108° |
| 2026-04-29 18:02 | 69.94751 | 18.99067 | 5122 ft | 247 kts | 107° |
| 2026-04-29 18:03 | 69.94313 | 19.03824 | 4947 ft | 241 kts | 114° |
| 2026-04-29 18:03 | 69.93408 | 19.07434 | 4973 ft | 208 kts | 156° |
| 2026-04-29 18:03 | 69.92138 | 19.08225 | 4959 ft | 172 kts | 195° |
| 2026-04-29 18:03 | 69.91053 | 19.07586 | 4930 ft | 148 kts | 206° |
| 2026-04-29 18:04 | 69.90087 | 19.06764 | 4769 ft | 143 kts | 207° |
| 2026-04-29 18:04 | 69.89136 | 19.05967 | 4737 ft | 143 kts | 207° |
| 2026-04-29 18:04 | 69.88181 | 19.05211 | 4714 ft | 144 kts | 205° |
| 2026-04-29 18:04 | 69.87217 | 19.04496 | 4692 ft | 144 kts | 205° |
| 2026-04-29 18:05 | 69.86231 | 19.03801 | 4656 ft | 145 kts | 204° |
| 2026-04-29 18:05 | 69.85246 | 19.03133 | 4451 ft | 145 kts | 204° |
| 2026-04-29 18:05 | 69.84271 | 19.02488 | 4185 ft | 142 kts | 204° |
| 2026-04-29 18:05 | 69.83324 | 19.01867 | 3924 ft | 140 kts | 203° |
| 2026-04-29 18:06 | 69.82376 | 19.01244 | 3677 ft | 139 kts | 203° |
| 2026-04-29 18:06 | 69.81437 | 19.00626 | 3434 ft | 139 kts | 203° |
| 2026-04-29 18:06 | 69.80517 | 19.00022 | 3173 ft | 137 kts | 203° |
| 2026-04-29 18:06 | 69.79594 | 18.99410 | 2931 ft | 137 kts | 203° |
| 2026-04-29 18:07 | 69.78662 | 18.98791 | 2654 ft | 137 kts | 202° |
| 2026-04-29 18:07 | 69.77747 | 18.98187 | 2440 ft | 135 kts | 201° |
| 2026-04-29 18:07 | 69.76842 | 18.97585 | 2173 ft | 132 kts | 200° |
| 2026-04-29 18:07 | 69.75946 | 18.96982 | 1944 ft | 132 kts | 199° |
| 2026-04-29 18:08 | 69.75056 | 18.96394 | 1682 ft | 132 kts | 200° |
| 2026-04-29 18:08 | 69.74173 | 18.95801 | 1442 ft | 131 kts | 198° |
| 2026-04-29 18:08 | 69.73292 | 18.95212 | 1198 ft | 131 kts | 197° |
| 2026-04-29 18:08 | 69.72415 | 18.94624 | 954 ft | 131 kts | 196° |
| 2026-04-29 18:09 | 69.71524 | 18.94027 | 715 ft | 130 kts | 195° |
| 2026-04-29 18:09 | 69.70655 | 18.93445 | 474 ft | 130 kts | 194° |
| 2026-04-29 18:09 | 69.69776 | 18.92885 | 208 ft | 128 kts | 193° |
| 2026-04-29 18:09 | 69.68950 | 18.92320 | 25 ft | 120 kts | 192° |
| 2026-04-29 18:10 | 69.68214 | 18.91819 | 0 ft | 88 kts | 194° |
| 2026-04-29 18:10 | 69.67783 | 18.91527 | 8 ft | 39 kts | 194° |
| 2026-04-29 18:10 | 69.67618 | 18.91346 | 9 ft | 15 kts | 262° |
| 2026-04-29 18:10 | 69.67632 | 18.91170 | 9 ft | 8 kts | 287° |
| 2026-04-29 18:11 | 69.67670 | 18.91067 | 9 ft | 8 kts | 3° |
| 2026-04-29 18:11 | 69.67733 | 18.91105 | 10 ft | 9 kts | 14° |
| 2026-04-29 18:11 | 69.67804 | 18.91155 | 10 ft | 11 kts | 13° |
| 2026-04-29 18:11 | 69.67822 | 18.91024 | 10 ft | 5 kts | 273° |
| 2026-04-29 18:12 | 69.67829 | 18.90943 | 9 ft | 1 kts | 283° |
| 2026-04-29 18:12 | 69.67829 | 18.90942 | 9 ft | 0 kts | 283° |